Time;durP1;ratioP1;P1;durP2;ratioP2;P2;SDS_P1;SDS_P2;PMS_P1;PMS_P2;Temp;Humidity;BMP_temperature;BMP_pressure;BME280_temperature;BME280_humidity;BME280_pressure;Samples;Min_cycle;Max_cycle;Signal;HPM_P1;HPM_P2
2022/06/16 00:01:10;;;;;;;;;;;;;;;21.88;80.46;97439.63;610011;232;63061;-68
2022/06/16 00:03:38;;;;;;;;;;;;;;;21.88;80.56;97439.63;609978;232;67079;-68
2022/06/16 00:06:05;;;;;;;;;;;;;;;21.89;80.54;97438.55;609996;232;67003;-67
2022/06/16 00:08:33;;;;;;;;;;;;;;;21.88;80.61;97436.95;610000;232;64950;-68
2022/06/16 00:11:19;;;;;;;;;;;;;;;21.89;80.64;97440.44;610075;232;67130;-68
2022/06/16 00:13:48;;;;;;;;;;;;;;;21.88;80.65;97436.95;610046;232;67158;-68
2022/06/16 00:16:16;;;;;;;;;;;;;;;21.89;80.71;97448.46;609995;232;64983;-68
2022/06/16 00:18:44;;;;;;;;;;;;;;;21.89;80.90;97443.91;609239;232;67115;-67
2022/06/16 00:21:12;;;;;;;;;;;;;;;21.88;81.07;97444.98;608699;233;66879;-67
2022/06/16 00:23:40;;;;;;;;;;;;;;;21.88;81.02;97446.84;608691;233;65092;-67
2022/06/16 00:26:15;;;;;;;;;;;;;;;21.88;81.08;97439.63;608715;233;67231;-67
2022/06/16 00:28:43;;;;;;;;;;;;;;;21.88;81.14;97439.63;608633;233;64933;-68
2022/06/16 00:31:12;;;;;;;;;;;;;;;21.87;81.18;97438.02;608675;233;62871;-68
2022/06/16 00:33:40;;;;;;;;;;;;;;;21.87;81.37;97435.33;608663;233;67281;-68
2022/06/16 00:36:08;;;;;;;;;;;;;;;21.87;81.50;97438.02;608658;233;67066;-68
2022/06/16 00:38:36;;;;;;;;;;;;;;;21.87;81.53;97440.69;608662;233;62827;-72
2022/06/16 00:41:04;;;;;;;;;;;;;;;21.86;81.68;97431.06;608671;233;67704;-72
2022/06/16 00:43:31;;;;;;;;;;;;;;;21.86;81.67;97424.91;608683;233;64651;-73
2022/06/16 00:46:01;;;;;;;;;;;;;;;21.87;81.62;97423.84;608691;233;62821;-72
2022/06/16 00:48:41;;;;;;;;;;;;;;;21.87;81.69;97423.84;608682;233;66859;-73
2022/06/16 00:51:09;;;;;;;;;;;;;;;21.87;81.70;97427.30;608687;233;64763;-73
2022/06/16 00:53:38;;;;;;;;;;;;;;;21.86;81.48;97428.39;608651;233;65115;-74
2022/06/16 00:56:07;;;;;;;;;;;;;;;21.87;81.57;97419.28;608647;233;66115;-73
2022/06/16 00:58:36;;;;;;;;;;;;;;;21.87;81.55;97418.48;608681;233;66904;-73
2022/06/16 01:01:04;;;;;;;;;;;;;;;21.86;81.61;97422.23;608681;233;63872;-73
2022/06/16 01:06:19;;;;;;;;;;;;;;;21.87;81.66;97419.28;608669;233;67002;-73
2022/06/16 01:08:48;;;;;;;;;;;;;;;21.86;81.66;97417.69;608708;233;64868;-73
2022/06/16 01:13:41;;;;;;;;;;;;;;;21.86;81.63;97415.01;608679;233;65075;-73
2022/06/16 01:13:51;;;;;;;;;;;;;;;21.87;81.74;97418.48;607789;233;67461;-72
2022/06/16 01:16:26;;;;;;;;;;;;;;;21.86;81.86;97406.98;608588;233;65159;-73
2022/06/16 01:18:55;;;;;;;;;;;;;;;21.86;81.69;97414.21;608581;233;67057;-73
2022/06/16 01:21:27;;;;;;;;;;;;;;;21.86;81.89;97409.66;608558;233;66922;-72
2022/06/16 01:24:02;;;;;;;;;;;;;;;21.85;81.63;97410.73;608396;233;62682;-72
2022/06/16 01:26:32;;;;;;;;;;;;;;;21.86;81.55;97412.33;608644;233;67150;-72
2022/06/16 01:29:13;;;;;;;;;;;;;;;21.85;81.63;97416.09;608643;233;64941;-72
2022/06/16 01:31:59;;;;;;;;;;;;;;;21.87;81.79;97408.58;608666;233;62695;-73
2022/06/16 01:34:33;;;;;;;;;;;;;;;21.86;81.90;97412.33;608704;232;45476;-73
2022/06/16 01:37:11;;;;;;;;;;;;;;;21.86;81.83;97408.86;608685;233;67376;-73
2022/06/16 01:39:47;;;;;;;;;;;;;;;21.85;81.91;97410.73;608666;233;65217;-68
2022/06/16 01:42:17;;;;;;;;;;;;;;;21.85;81.81;97410.73;608621;233;68179;-67
2022/06/16 01:44:46;;;;;;;;;;;;;;;21.86;81.69;97408.86;608638;233;67244;-67
2022/06/16 01:47:15;;;;;;;;;;;;;;;21.85;81.66;97410.73;608663;233;62859;-67
2022/06/16 01:49:44;;;;;;;;;;;;;;;21.85;81.96;97400.03;608611;233;67647;-67
2022/06/16 01:52:13;;;;;;;;;;;;;;;21.85;81.99;97400.03;608570;233;67608;-67
2022/06/16 01:54:42;;;;;;;;;;;;;;;21.85;82.04;97400.03;608700;233;63011;-67
2022/06/16 01:57:12;;;;;;;;;;;;;;;21.84;82.09;97387.71;608589;233;66050;-67
2022/06/16 01:59:43;;;;;;;;;;;;;;;21.86;82.09;97390.13;608594;233;67029;-67
2022/06/16 02:02:12;;;;;;;;;;;;;;;21.85;82.09;97394.69;608552;233;64869;-67
2022/06/16 02:04:45;;;;;;;;;;;;;;;21.86;82.10;97398.16;608561;232;66978;-68
2022/06/16 02:07:13;;;;;;;;;;;;;;;21.85;82.12;97389.34;601066;233;67924;-68
2022/06/16 02:09:42;;;;;;;;;;;;;;;21.85;82.00;97394.69;608623;233;63031;-68
2022/06/16 02:12:55;;;;;;;;;;;;;;;21.85;82.08;97397.36;608664;233;64997;-68
2022/06/16 02:14:44;;;;;;;;;;;;;;;21.86;82.12;97398.16;607893;233;64797;-68
2022/06/16 02:17:19;;;;;;;;;;;;;;;21.86;82.16;97400.84;605375;233;46402;-72
2022/06/16 02:19:47;;;;;;;;;;;;;;;21.84;82.15;97390.38;609938;232;67042;-73
2022/06/16 02:22:15;;;;;;;;;;;;;;;21.85;82.18;97394.69;609989;232;66848;-72
2022/06/16 02:24:44;;;;;;;;;;;;;;;21.84;82.25;97403.77;610104;232;42378;-72
2022/06/16 02:27:13;;;;;;;;;;;;;;;21.84;82.21;97398.41;609984;232;67665;-72
2022/06/16 02:29:41;;;;;;;;;;;;;;;21.86;82.21;97398.16;609998;232;64426;-72
2022/06/16 02:32:21;;;;;;;;;;;;;;;21.84;82.17;97398.41;609989;232;44698;-72
2022/06/16 02:34:50;;;;;;;;;;;;;;;21.84;82.23;97395.73;609982;232;67085;-73
2022/06/16 02:37:31;;;;;;;;;;;;;;;21.85;82.27;97400.03;609868;232;67018;-74
2022/06/16 02:40:09;;;;;;;;;;;;;;;21.84;82.30;97403.77;609999;232;64879;-72
2022/06/16 02:42:48;;;;;;;;;;;;;;;21.84;82.26;97401.09;610003;232;67223;-72
2022/06/16 02:45:18;;;;;;;;;;;;;;;21.84;82.33;97406.44;609983;232;66985;-73
2022/06/16 02:48:04;;;;;;;;;;;;;;;21.84;82.31;97401.09;605596;232;62797;-72
2022/06/16 02:50:36;;;;;;;;;;;;;;;21.84;82.31;97403.77;610012;232;65820;-72
2022/06/16 02:53:14;;;;;;;;;;;;;;;21.84;82.35;97402.97;610040;232;64957;-72
2022/06/16 02:55:43;;;;;;;;;;;;;;;21.84;82.38;97397.62;609903;232;65361;-72
2022/06/16 02:58:12;;;;;;;;;;;;;;;21.83;82.45;97402.17;610067;232;67469;-72
2022/06/16 03:00:46;;;;;;;;;;;;;;;21.84;82.42;97411.79;610005;232;49720;-72
2022/06/16 03:03:20;;;;;;;;;;;;;;;21.84;82.42;97413.67;610032;232;62877;-72
2022/06/16 03:05:50;;;;;;;;;;;;;;;21.84;82.47;97402.97;610111;232;44059;-72
2022/06/16 03:08:18;;;;;;;;;;;;;;;21.83;82.45;97407.52;610040;232;66518;-72
2022/06/16 03:10:52;;;;;;;;;;;;;;;21.84;82.42;97413.67;610079;232;63019;-72
2022/06/16 03:13:21;;;;;;;;;;;;;;;21.84;82.54;97416.34;610076;232;64202;-72
2022/06/16 03:15:50;;;;;;;;;;;;;;;21.83;82.49;97404.84;610027;232;66890;-72
2022/06/16 03:18:18;;;;;;;;;;;;;;;21.85;82.52;97408.06;610004;232;62688;-72
2022/06/16 03:20:46;;;;;;;;;;;;;;;21.83;82.61;97407.52;610023;232;67018;-72
2022/06/16 03:23:14;;;;;;;;;;;;;;;21.84;82.56;97409.11;610022;232;67061;-72
2022/06/16 03:25:42;;;;;;;;;;;;;;;21.84;82.63;97410.99;610001;232;66017;-72
2022/06/16 03:28:12;;;;;;;;;;;;;;;21.83;82.70;97409.40;610022;232;65311;-72
2022/06/16 03:30:41;;;;;;;;;;;;;;;21.83;82.69;97412.88;610013;232;67081;-71
2022/06/16 03:33:10;;;;;;;;;;;;;;;21.83;82.79;97410.20;610006;232;63120;-67
2022/06/16 03:35:39;;;;;;;;;;;;;;;21.83;82.81;97409.40;610009;232;67216;-67
2022/06/16 03:38:16;;;;;;;;;;;;;;;21.84;82.84;97405.64;610031;232;64948;-70
2022/06/16 03:40:43;;;;;;;;;;;;;;;21.83;82.85;97399.49;610053;232;66064;-68
2022/06/16 03:43:10;;;;;;;;;;;;;;;21.83;82.86;97402.17;610045;232;64502;-68
2022/06/16 03:45:38;;;;;;;;;;;;;;;21.83;82.90;97402.17;610008;232;64439;-68
2022/06/16 03:48:06;;;;;;;;;;;;;;;21.83;82.87;97401.37;609996;232;65101;-68
2022/06/16 03:50:35;;;;;;;;;;;;;;;21.83;82.90;97402.17;609943;232;64454;-67
2022/06/16 03:53:04;;;;;;;;;;;;;;;21.83;82.87;97396.02;610056;232;67318;-67
2022/06/16 03:55:32;;;;;;;;;;;;;;;21.82;82.94;97392.52;608672;232;62293;-67
2022/06/16 03:58:00;;;;;;;;;;;;;;;21.82;82.94;97395.20;609998;232;64877;-70
2022/06/16 04:00:28;;;;;;;;;;;;;;;21.82;82.91;97395.20;610027;232;67154;-68
2022/06/16 04:05:44;;;;;;;;;;;;;;;21.83;82.93;97402.17;610060;232;45697;-68
2022/06/16 04:08:16;;;;;;;;;;;;;;;21.82;82.88;97400.55;610132;232;44536;-68
2022/06/16 04:10:43;;;;;;;;;;;;;;;21.82;82.82;97405.89;609995;232;65237;-68
2022/06/16 04:13:11;;;;;;;;;;;;;;;21.82;82.93;97399.75;609933;232;64765;-68
2022/06/16 04:15:39;;;;;;;;;;;;;;;21.83;82.96;97394.14;609946;232;65136;-68
2022/06/16 04:18:07;;;;;;;;;;;;;;;21.82;82.89;97389.84;609953;232;63167;-68
2022/06/16 04:20:36;;;;;;;;;;;;;;;21.82;82.93;97395.20;610042;232;67837;-68
2022/06/16 04:23:18;;;;;;;;;;;;;;;21.82;82.83;97399.75;610042;232;44327;-68
2022/06/16 04:25:46;;;;;;;;;;;;;;;21.82;82.80;97395.20;610010;232;62497;-69
2022/06/16 04:28:15;;;;;;;;;;;;;;;21.82;82.88;97395.20;609871;232;49339;-68
2022/06/16 04:30:45;;;;;;;;;;;;;;;21.82;82.82;97395.20;609873;232;49021;-69
2022/06/16 04:33:13;;;;;;;;;;;;;;;21.82;82.86;97397.87;610020;232;62493;-69
2022/06/16 04:35:41;;;;;;;;;;;;;;;21.81;82.87;97390.92;610063;232;66795;-69
2022/06/16 04:38:11;;;;;;;;;;;;;;;21.82;82.89;97397.87;610040;232;45038;-69
2022/06/16 04:40:39;;;;;;;;;;;;;;;21.81;82.89;97388.25;609951;232;65681;-68
2022/06/16 04:43:10;;;;;;;;;;;;;;;21.82;82.93;97389.84;610040;232;44737;-68
2022/06/16 04:45:39;;;;;;;;;;;;;;;21.82;83.01;97394.39;610016;232;64442;-68
2022/06/16 04:48:08;;;;;;;;;;;;;;;21.81;82.89;97401.63;609979;232;65671;-68
2022/06/16 04:50:37;;;;;;;;;;;;;;;21.82;82.93;97399.75;609923;232;46006;-68
2022/06/16 04:53:06;;;;;;;;;;;;;;;21.81;82.99;97393.59;609871;232;65237;-72
2022/06/16 04:55:35;;;;;;;;;;;;;;;21.81;83.02;97396.27;609346;232;43658;-72
2022/06/16 04:58:05;;;;;;;;;;;;;;;21.82;83.00;97394.39;609832;232;43921;-73
2022/06/16 05:00:51;;;;;;;;;;;;;;;21.81;82.98;97401.63;610079;232;42076;-73
2022/06/16 05:03:22;;;;;;;;;;;;;;;21.81;82.98;97396.27;609754;232;45335;-74
2022/06/16 05:06:06;;;;;;;;;;;;;;;21.81;82.99;97396.27;609918;232;44379;-72
2022/06/16 05:08:38;;;;;;;;;;;;;;;21.81;83.07;97392.80;609643;232;43880;-72
2022/06/16 05:11:24;;;;;;;;;;;;;;;21.81;83.05;97396.27;609531;232;37591;-72
2022/06/16 05:13:57;;;;;;;;;;;;;;;21.81;83.07;97387.45;607551;232;47936;-72
2022/06/16 05:16:30;;;;;;;;;;;;;;;21.80;83.08;97389.33;609885;232;46583;-72
2022/06/16 05:19:17;;;;;;;;;;;;;;;21.81;83.10;97387.45;603957;234;47370;-71
2022/06/16 05:22:05;;;;;;;;;;;;;;;21.80;83.12;97388.50;604949;234;38813;-74
2022/06/16 05:24:51;;;;;;;;;;;;;;;21.79;83.15;97387.70;610364;231;42875;-71
2022/06/16 05:27:37;;;;;;;;;;;;;;;21.79;83.15;97387.70;614012;231;37374;-72
2022/06/16 05:30:22;;;;;;;;;;;;;;;21.80;83.15;97391.17;614019;231;38772;-72
2022/06/16 05:32:52;;;;;;;;;;;;;;;21.78;83.19;97388.78;608129;231;48185;-72
2022/06/16 05:35:27;;;;;;;;;;;;;;;21.78;83.29;97388.78;613934;231;44382;-71
2022/06/16 05:37:56;;;;;;;;;;;;;;;21.79;83.28;97382.35;608172;231;49252;-68
2022/06/16 05:40:26;;;;;;;;;;;;;;;21.78;83.27;97386.11;612819;231;47819;-68
2022/06/16 05:42:56;;;;;;;;;;;;;;;21.79;83.25;97390.38;613788;231;46337;-70
2022/06/16 05:45:34;;;;;;;;;;;;;;;21.79;83.28;97393.05;604899;233;49556;-69
2022/06/16 05:48:15;;;;;;;;;;;;;;;21.79;83.20;97385.03;613687;231;45325;-68
2022/06/16 05:50:44;;;;;;;;;;;;;;;21.79;83.19;97384.23;613919;231;65432;-67
2022/06/16 05:53:12;;;;;;;;;;;;;;;21.79;83.18;97392.26;613925;231;66563;-68
2022/06/16 05:55:41;;;;;;;;;;;;;;;21.78;83.20;97388.78;613987;231;44271;-68
2022/06/16 05:58:09;;;;;;;;;;;;;;;21.79;83.15;97381.55;613870;231;65521;-68
2022/06/16 06:00:53;;;;;;;;;;;;;;;21.79;83.07;97389.58;613920;231;67811;-68
2022/06/16 06:03:22;;;;;;;;;;;;;;;21.79;83.05;97395.73;613890;231;67307;-68
2022/06/16 06:05:50;;;;;;;;;;;;;;;21.80;83.05;97393.85;613915;231;65692;-68
2022/06/16 06:16:39;;;;;;;;;;;;;;;21.79;82.80;97392.26;613914;231;67190;-68
2022/06/16 06:19:31;;;;;;;;;;;;;;;21.78;82.39;97393.34;610928;231;49123;-69
2022/06/16 06:22:02;;;;;;;;;;;;;;;21.80;82.28;97396.53;609740;232;63074;-66
2022/06/16 06:24:33;;;;;;;;;;;;;;;21.81;82.58;97392.80;605423;232;67452;-68
2022/06/16 06:27:05;;;;;;;;;;;;;;;21.82;82.85;97392.52;602904;235;49647;-69
2022/06/16 06:29:32;;;;;;;;;;;;;;;21.82;82.79;97394.39;603063;235;65155;-69
2022/06/16 06:32:01;;;;;;;;;;;;;;;21.81;82.81;97393.59;603124;235;67052;-68
2022/06/16 06:34:30;;;;;;;;;;;;;;;21.82;83.01;97397.87;602989;235;67592;-69
2022/06/16 06:36:58;;;;;;;;;;;;;;;21.81;82.95;97393.59;603060;235;62468;-69
2022/06/16 06:39:25;;;;;;;;;;;;;;;21.82;82.85;97391.72;603023;235;67103;-69
2022/06/16 06:41:53;;;;;;;;;;;;;;;21.82;82.74;97384.48;603034;235;66810;-69
2022/06/16 06:44:20;;;;;;;;;;;;;;;21.83;82.69;97390.67;603148;235;64903;-69
2022/06/16 06:46:48;;;;;;;;;;;;;;;21.82;82.65;97384.48;602972;235;67205;-68
2022/06/16 06:49:15;;;;;;;;;;;;;;;21.84;82.65;97389.59;603033;235;67202;-69
2022/06/16 06:51:43;;;;;;;;;;;;;;;21.84;82.63;97387.71;603052;235;64882;-69
2022/06/16 06:54:10;;;;;;;;;;;;;;;21.84;82.50;97390.38;602987;235;67137;-69
2022/06/16 06:56:38;;;;;;;;;;;;;;;21.85;82.48;97389.34;603552;232;65631;-68
2022/06/16 06:59:07;;;;;;;;;;;;;;;21.84;82.39;97390.38;602335;233;65032;-69
2022/06/16 07:01:34;;;;;;;;;;;;;;;21.84;82.35;97382.36;602147;235;64947;-69
2022/06/16 07:04:02;;;;;;;;;;;;;;;21.85;82.39;97383.16;602220;235;64558;-68
2022/06/16 07:06:30;;;;;;;;;;;;;;;21.85;82.37;97383.16;602211;235;64999;-69
2022/06/16 07:08:58;;;;;;;;;;;;;;;21.88;79.90;97386.13;602136;235;66549;-68
2022/06/16 07:11:25;;;;;;;;;;;;;;;21.89;78.65;97382.36;602185;235;66734;-68
2022/06/16 07:13:53;;;;;;;;;;;;;;;21.91;81.04;97384.78;602219;235;65133;-68
2022/06/16 07:16:21;;;;;;;;;;;;;;;21.88;81.83;97383.45;602145;235;64969;-70
2022/06/16 07:18:49;;;;;;;;;;;;;;;21.89;81.57;97382.36;601885;235;66723;-71
2022/06/16 07:21:16;;;;;;;;;;;;;;;21.89;81.44;97378.89;601734;236;64922;-69
2022/06/16 07:23:44;;;;;;;;;;;;;;;21.87;81.82;97379.14;601750;236;66959;-69
2022/06/16 07:26:12;;;;;;;;;;;;;;;21.87;81.84;97373.00;601743;236;66748;-69
2022/06/16 07:28:40;;;;;;;;;;;;;;;21.87;81.69;97368.45;601669;236;64913;-69
2022/06/16 07:31:07;;;;;;;;;;;;;;;21.89;81.19;97377.02;601685;236;67086;-69
2022/06/16 07:33:35;;;;;;;;;;;;;;;21.89;81.29;97366.31;601712;236;66912;-69
2022/06/16 07:36:02;;;;;;;;;;;;;;;21.89;81.40;97374.34;601744;236;64854;-69
2022/06/16 07:38:30;;;;;;;;;;;;;;;21.90;81.83;97367.11;601624;236;67018;-69
2022/06/16 07:43:43;;;;;;;;;;;;;;;21.89;82.00;97371.66;601674;236;62901;-68
2022/06/16 07:46:10;;;;;;;;;;;;;;;21.89;81.97;97371.66;601612;236;66855;-67
2022/06/16 07:48:38;;;;;;;;;;;;;;;21.90;82.04;97364.44;601738;236;66852;-72
2022/06/16 07:51:05;;;;;;;;;;;;;;;21.90;82.12;97372.46;601767;236;62734;-68
2022/06/16 07:53:33;;;;;;;;;;;;;;;21.90;82.17;97370.58;601624;236;64842;-68
2022/06/16 07:56:00;;;;;;;;;;;;;;;21.90;82.22;97375.93;601790;236;64574;-68
2022/06/16 07:58:31;;;;;;;;;;;;;;;21.90;82.29;97370.58;601671;236;62882;-68
2022/06/16 08:00:58;;;;;;;;;;;;;;;21.90;82.32;97369.78;601692;236;67031;-68
2022/06/16 08:03:29;;;;;;;;;;;;;;;21.90;82.36;97373.25;601766;236;65211;-68
2022/06/16 08:05:58;;;;;;;;;;;;;;;21.89;82.41;97366.31;601682;236;62831;-69
2022/06/16 08:08:26;;;;;;;;;;;;;;;21.90;82.47;97365.23;601728;236;67142;-68
2022/06/16 08:10:54;;;;;;;;;;;;;;;21.90;79.41;97367.91;601748;236;67073;-68
2022/06/16 08:13:23;;;;;;;;;;;;;;;21.91;80.00;97369.53;601675;236;62859;-67
2022/06/16 08:15:51;;;;;;;;;;;;;;;21.90;78.41;97369.78;601749;236;65228;-69
2022/06/16 08:18:19;;;;;;;;;;;;;;;21.90;80.39;97373.25;601776;236;66866;-67
2022/06/16 08:20:47;;;;;;;;;;;;;;;21.91;80.54;97366.05;601755;236;66003;-66
2022/06/16 08:23:15;;;;;;;;;;;;;;;21.91;81.04;97372.20;601768;236;66791;-67
2022/06/16 08:25:43;;;;;;;;;;;;;;;21.90;81.11;97362.55;601738;236;66678;-65
2022/06/16 08:28:12;;;;;;;;;;;;;;;21.90;81.02;97370.58;601582;236;65065;-68
2022/06/16 08:30:47;;;;;;;;;;;;;;;21.91;81.15;97368.73;601757;236;64797;-69
2022/06/16 08:33:16;;;;;;;;;;;;;;;21.91;81.33;97366.85;601729;236;64693;-67
2022/06/16 08:35:46;;;;;;;;;;;;;;;21.92;81.46;97376.47;601708;236;65167;-69
2022/06/16 08:38:14;;;;;;;;;;;;;;;21.91;81.57;97372.20;607859;232;64637;-67
2022/06/16 08:40:46;;;;;;;;;;;;;;;21.91;81.66;97380.23;609858;232;67010;-68
2022/06/16 08:43:18;;;;;;;;;;;;;;;21.93;81.76;97380.77;609422;232;64978;-68
2022/06/16 08:45:57;;;;;;;;;;;;;;;21.91;81.83;97369.53;609709;232;66763;-69
2022/06/16 08:48:26;;;;;;;;;;;;;;;21.91;81.89;97369.53;609861;232;64745;-68
2022/06/16 08:50:55;;;;;;;;;;;;;;;21.91;81.95;97366.85;609920;232;66210;-68
2022/06/16 08:53:36;;;;;;;;;;;;;;;21.92;82.02;97368.45;609976;232;64596;-71
2022/06/16 08:56:08;;;;;;;;;;;;;;;21.93;82.08;97369.24;609571;232;66653;-69
2022/06/16 08:58:53;;;;;;;;;;;;;;;21.93;82.13;97379.95;609938;232;65378;-68
2022/06/16 09:01:22;;;;;;;;;;;;;;;21.93;82.18;97374.59;609997;232;66753;-68
2022/06/16 09:03:55;;;;;;;;;;;;;;;21.93;82.22;97364.72;609897;232;64592;-68
2022/06/16 09:06:33;;;;;;;;;;;;;;;21.92;82.23;97363.09;608469;232;62695;-68
2022/06/16 09:09:10;;;;;;;;;;;;;;;21.93;82.25;97375.42;608911;232;64307;-68
2022/06/16 09:11:42;;;;;;;;;;;;;;;21.93;82.22;97374.59;609893;232;64098;-68
2022/06/16 09:14:11;;;;;;;;;;;;;;;21.92;82.23;97368.45;609924;232;62710;-68
2022/06/16 09:16:40;;;;;;;;;;;;;;;21.93;82.18;97375.42;607972;232;64560;-69
2022/06/16 09:19:23;;;;;;;;;;;;;;;21.92;82.18;97368.45;607826;232;64853;-69
2022/06/16 09:21:53;;;;;;;;;;;;;;;21.93;82.17;97372.75;607288;233;64859;-75
2022/06/16 09:24:22;;;;;;;;;;;;;;;21.92;82.15;97356.95;607339;233;66741;-75
2022/06/16 09:26:51;;;;;;;;;;;;;;;21.93;82.14;97369.24;607125;233;64738;-72
2022/06/16 09:29:20;;;;;;;;;;;;;;;21.93;82.17;97361.22;607418;233;65063;-74
2022/06/16 09:32:08;;;;;;;;;;;;;;;21.94;82.22;97360.96;607348;233;64354;-74
2022/06/16 09:34:38;;;;;;;;;;;;;;;21.93;82.31;97356.69;607470;233;64606;-76
2022/06/16 09:37:07;;;;;;;;;;;;;;;21.93;82.31;97359.37;607174;233;63689;-75
2022/06/16 09:39:36;;;;;;;;;;;;;;;21.93;82.29;97358.54;607207;233;64168;-75
2022/06/16 09:44:51;;;;;;;;;;;;;;;21.94;82.38;97362.84;607338;233;64919;-74
2022/06/16 09:47:20;;;;;;;;;;;;;;;21.93;82.42;97362.05;607381;233;71844;-74
2022/06/16 09:49:49;;;;;;;;;;;;;;;21.93;82.43;97351.34;606934;233;66740;-74
2022/06/16 09:52:19;;;;;;;;;;;;;;;21.95;82.45;97348.37;607329;233;63741;-74
2022/06/16 09:54:48;;;;;;;;;;;;;;;21.94;82.43;97346.78;607147;233;65491;-74
2022/06/16 09:57:20;;;;;;;;;;;;;;;21.93;82.41;97348.66;607364;233;66815;-74
2022/06/16 09:59:49;;;;;;;;;;;;;;;21.94;82.39;97349.46;607342;233;64841;-74
2022/06/16 10:02:20;;;;;;;;;;;;;;;21.94;82.38;97347.58;607169;233;64700;-74
2022/06/16 10:04:54;;;;;;;;;;;;;;;21.94;82.36;97344.11;607157;233;64708;-73
2022/06/16 10:07:23;;;;;;;;;;;;;;;21.94;82.38;97346.78;607310;233;62979;-73
2022/06/16 10:09:52;;;;;;;;;;;;;;;21.94;82.35;97331.53;607188;233;65429;-74
2022/06/16 10:12:21;;;;;;;;;;;;;;;21.94;82.33;97336.08;607249;233;66890;-74
2022/06/16 10:14:50;;;;;;;;;;;;;;;21.94;82.32;97344.11;607248;233;64867;-74
2022/06/16 10:17:21;;;;;;;;;;;;;;;21.95;82.30;97346.50;607277;233;44512;-75
2022/06/16 10:19:49;;;;;;;;;;;;;;;21.95;81.61;97333.12;613214;231;66849;-75
2022/06/16 10:22:19;;;;;;;;;;;;;;;21.94;82.04;97334.20;613104;231;65491;-74
2022/06/16 10:24:51;;;;;;;;;;;;;;;21.95;81.89;97340.35;613257;231;66904;-76
2022/06/16 10:27:20;;;;;;;;;;;;;;;21.94;81.93;97334.20;613183;231;66447;-75
2022/06/16 10:29:52;;;;;;;;;;;;;;;21.95;81.82;97330.44;613256;231;65166;-74
2022/06/16 10:32:21;;;;;;;;;;;;;;;21.96;81.78;97331.23;613287;231;67652;-74
2022/06/16 10:34:50;;;;;;;;;;;;;;;21.94;81.81;97323.50;612589;231;66974;-74
2022/06/16 10:37:19;;;;;;;;;;;;;;;21.97;81.83;97326.71;613260;231;64921;-74
2022/06/16 10:39:54;;;;;;;;;;;;;;;21.95;81.85;97326.97;613263;231;66648;-74
2022/06/16 10:42:23;;;;;;;;;;;;;;;21.95;81.84;97324.30;613228;231;66886;-75
2022/06/16 10:44:52;;;;;;;;;;;;;;;21.95;81.86;97318.95;613313;231;65059;-75
2022/06/16 10:47:21;;;;;;;;;;;;;;;21.95;81.89;97319.73;613187;231;68915;-76
2022/06/16 10:49:50;;;;;;;;;;;;;;;21.95;81.92;97314.39;613183;231;67582;-76
2022/06/16 10:52:34;;;;;;;;;;;;;;;21.95;81.95;97310.91;613268;231;65115;-76
2022/06/16 10:55:05;;;;;;;;;;;;;;;21.96;81.94;97320.53;613220;231;64161;-75
2022/06/16 10:57:34;;;;;;;;;;;;;;;21.95;81.92;97314.39;613200;231;64577;-75
2022/06/16 11:00:06;;;;;;;;;;;;;;;21.96;81.91;97315.19;613235;231;64844;-75
2022/06/16 11:02:35;;;;;;;;;;;;;;;21.96;81.88;97309.83;612509;231;66876;-69
2022/06/16 11:05:04;;;;;;;;;;;;;;;21.95;81.88;97309.03;614294;231;66828;-69
2022/06/16 11:07:38;;;;;;;;;;;;;;;21.97;81.91;97310.66;614072;231;63854;-69
2022/06/16 11:10:13;;;;;;;;;;;;;;;21.96;81.87;97315.19;610933;231;64828;-68
2022/06/16 11:12:42;;;;;;;;;;;;;;;21.96;81.85;97315.19;610502;232;66713;-68
2022/06/16 11:15:17;;;;;;;;;;;;;;;21.95;81.85;97314.39;610674;232;64869;-68
2022/06/16 11:17:46;;;;;;;;;;;;;;;21.96;81.85;97307.16;610140;232;64085;-67
2022/06/16 11:20:21;;;;;;;;;;;;;;;21.95;81.86;97309.03;608666;233;64371;-68
2022/06/16 11:22:50;;;;;;;;;;;;;;;21.96;81.89;97309.83;608743;233;65237;-68
2022/06/16 11:25:22;;;;;;;;;;;;;;;21.97;81.85;97313.34;608638;233;66440;-68
2022/06/16 11:27:51;;;;;;;;;;;;;;;21.97;81.82;97302.63;608820;233;66388;-68
2022/06/16 11:30:29;;;;;;;;;;;;;;;21.97;81.85;97305.30;608770;233;62793;-68
2022/06/16 11:32:57;;;;;;;;;;;;;;;21.95;81.87;97301.01;608766;233;66681;-67
2022/06/16 11:35:32;;;;;;;;;;;;;;;21.97;81.86;97302.63;608732;233;66479;-66
2022/06/16 11:38:04;;;;;;;;;;;;;;;21.96;81.78;97291.10;608462;233;64849;-67
2022/06/16 11:40:33;;;;;;;;;;;;;;;21.96;81.74;97296.45;608655;233;67419;-68
2022/06/16 11:43:05;;;;;;;;;;;;;;;21.97;81.72;97294.60;608841;233;64286;-68
2022/06/16 11:45:40;;;;;;;;;;;;;;;21.97;81.75;97287.37;608522;233;62892;-68
2022/06/16 11:48:21;;;;;;;;;;;;;;;21.97;81.76;97289.25;608609;233;66840;-69
2022/06/16 11:50:56;;;;;;;;;;;;;;;21.97;81.75;97291.92;608748;233;67051;-68
2022/06/16 11:53:34;;;;;;;;;;;;;;;21.97;81.75;97295.40;608624;233;65260;-67
2022/06/16 11:56:04;;;;;;;;;;;;;;;21.97;81.74;97290.05;608741;233;66774;-71
2022/06/16 11:58:33;;;;;;;;;;;;;;;21.97;81.71;97295.40;607868;233;66658;-70
2022/06/16 12:01:05;;;;;;;;;;;;;;;21.97;81.68;97299.95;608393;233;65214;-70
2022/06/16 12:03:50;;;;;;;;;;;;;;;21.97;81.69;97295.40;608664;233;66835;-67
2022/06/16 12:06:38;;;;;;;;;;;;;;;21.98;79.84;97285.49;608745;233;66650;-68
2022/06/16 12:09:07;;;;;;;;;;;;;;;21.99;81.24;97287.08;608625;233;62762;-67
2022/06/16 12:11:45;;;;;;;;;;;;;;;21.99;81.21;97292.44;608723;233;64528;-67
2022/06/16 12:14:14;;;;;;;;;;;;;;;21.97;81.60;97291.92;608707;233;66715;-72
2022/06/16 12:16:44;;;;;;;;;;;;;;;21.97;81.55;97289.25;607733;233;65045;-73
2022/06/16 12:19:25;;;;;;;;;;;;;;;21.97;81.46;97291.92;608656;233;67249;-74
2022/06/16 12:22:04;;;;;;;;;;;;;;;21.97;81.29;97286.58;599502;233;66593;-74
2022/06/16 12:24:36;;;;;;;;;;;;;;;21.97;81.33;97283.90;608697;233;65329;-74
2022/06/16 12:27:14;;;;;;;;;;;;;;;21.97;81.30;97290.05;608734;233;64585;-75
2022/06/16 12:29:52;;;;;;;;;;;;;;;21.97;81.28;97283.90;608663;233;64573;-73
2022/06/16 12:32:21;;;;;;;;;;;;;;;21.97;81.25;97279.34;608707;233;62956;-71
2022/06/16 12:35:07;;;;;;;;;;;;;;;21.97;81.32;97273.99;608564;233;67116;-74
2022/06/16 12:37:39;;;;;;;;;;;;;;;21.98;81.43;97277.46;608676;233;64774;-74
2022/06/16 12:40:21;;;;;;;;;;;;;;;21.97;81.40;97270.52;608683;233;65836;-73
2022/06/16 12:42:50;;;;;;;;;;;;;;;21.98;81.31;97277.46;599604;233;67086;-73
2022/06/16 12:45:19;;;;;;;;;;;;;;;21.97;81.28;97273.20;608597;233;67160;-75
2022/06/16 12:47:48;;;;;;;;;;;;;;;21.98;81.32;97269.44;608655;233;64869;-73
2022/06/16 12:50:20;;;;;;;;;;;;;;;22.01;79.39;97269.69;608603;233;67054;-74
2022/06/16 12:52:52;;;;;;;;;;;;;;;22.03;78.81;97266.75;608708;233;66844;-74
2022/06/16 12:55:30;;;;;;;;;;;;;;;22.04;81.11;97268.34;608739;233;63163;-76
2022/06/16 12:58:02;;;;;;;;;;;;;;;22.03;81.51;97264.08;608535;233;67217;-69
2022/06/16 13:00:31;;;;;;;;;;;;;;;22.02;81.63;97257.93;608649;233;66862;-69
2022/06/16 13:03:04;;;;;;;;;;;;;;;22.02;81.59;97249.10;608388;233;46655;-69
2022/06/16 13:05:32;;;;;;;;;;;;;;;22.02;81.63;97254.45;607132;231;64853;-70
2022/06/16 13:08:01;;;;;;;;;;;;;;;22.02;81.66;97251.78;608782;231;65060;-69
2022/06/16 13:10:31;;;;;;;;;;;;;;;22.01;81.60;97250.16;609149;231;65093;-71
2022/06/16 13:12:59;;;;;;;;;;;;;;;22.12;77.35;97249.84;608580;231;67042;-70
2022/06/16 13:15:31;;;;;;;;;;;;;;;22.11;78.05;97248.26;608755;233;64856;-68
2022/06/16 13:18:00;;;;;;;;;;;;;;;22.11;77.19;97247.46;608638;233;64874;-68
2022/06/16 13:20:30;;;;;;;;;;;;;;;22.15;75.45;97243.15;608684;233;64875;-69
2022/06/16 13:22:59;;;;;;;;;;;;;;;22.10;77.22;97243.98;608332;233;66854;-70
2022/06/16 13:25:43;;;;;;;;;;;;;;;22.07;79.21;97244.53;608515;233;64885;-69
2022/06/16 13:28:13;;;;;;;;;;;;;;;22.05;79.71;97249.35;608454;233;64656;-68